createdAt,value
2019-05-12T00:00:07.852Z,99.90
2019-05-12T00:02:36.016Z,99.90
2019-05-12T00:05:04.459Z,99.90
2019-05-12T00:07:32.395Z,99.90
2019-05-12T00:10:00.320Z,99.90
2019-05-12T00:12:28.231Z,99.90
2019-05-12T00:14:56.176Z,99.90
2019-05-12T00:17:24.053Z,99.90
2019-05-12T00:19:51.937Z,99.90
2019-05-12T00:22:21.527Z,99.90
2019-05-12T00:24:49.473Z,99.90
2019-05-12T00:27:21.851Z,99.90
2019-05-12T00:29:49.772Z,99.90
2019-05-12T00:32:18.046Z,99.90
2019-05-12T00:34:48.064Z,99.90
2019-05-12T00:37:15.630Z,99.90
2019-05-12T00:39:43.568Z,99.90
2019-05-12T00:42:11.499Z,99.90
2019-05-12T00:44:39.527Z,99.90
2019-05-12T00:47:08.200Z,99.90
2019-05-12T00:49:37.902Z,99.90
2019-05-12T00:52:07.956Z,99.90
2019-05-12T00:54:37.502Z,99.90
2019-05-12T00:57:04.921Z,99.90
2019-05-12T00:59:32.848Z,99.90
2019-05-12T01:02:00.786Z,99.90
2019-05-12T01:04:29.225Z,99.90
2019-05-12T01:06:58.278Z,99.90
2019-05-12T01:09:28.118Z,99.90
2019-05-12T01:11:55.790Z,99.90
2019-05-12T01:14:23.712Z,99.90
2019-05-12T01:16:51.667Z,99.90
2019-05-12T01:19:19.590Z,99.90
2019-05-12T01:21:48.157Z,99.90
2019-05-12T01:24:18.523Z,99.90
2019-05-12T01:26:47.531Z,99.90
2019-05-12T01:29:17.513Z,99.90
2019-05-12T01:31:48.476Z,99.90
2019-05-12T01:34:18.149Z,99.90
2019-05-12T01:36:45.626Z,99.90
2019-05-12T01:39:13.588Z,99.90
2019-05-12T01:41:41.491Z,99.90
2019-05-12T01:44:09.369Z,99.90
2019-05-12T01:46:38.340Z,99.90
2019-05-12T01:49:08.284Z,99.90
2019-05-12T01:51:38.232Z,99.90
2019-05-12T01:54:11.700Z,99.90
2019-05-12T01:56:35.229Z,99.90
2019-05-12T01:59:03.125Z,99.90
2019-05-12T02:01:30.999Z,99.90
2019-05-12T02:03:58.916Z,99.90
2019-05-12T02:06:30.813Z,99.90
2019-05-12T02:09:00.408Z,99.90
2019-05-12T02:11:34.284Z,99.90
2019-05-12T02:14:02.540Z,99.90
2019-05-12T02:16:30.480Z,99.90
2019-05-12T02:18:58.430Z,99.90
2019-05-12T02:21:27.965Z,99.90
2019-05-12T02:23:58.140Z,99.90
2019-05-12T02:26:25.592Z,99.90
2019-05-12T02:28:53.458Z,99.90
2019-05-12T02:31:22.357Z,99.90
2019-05-12T02:33:50.198Z,99.90
2019-05-12T02:36:18.110Z,99.90
2019-05-12T02:38:45.989Z,99.90
2019-05-12T02:41:15.452Z,99.90
2019-05-12T02:43:45.649Z,99.90
2019-05-12T02:46:15.492Z,99.90
2019-05-12T02:48:44.987Z,99.90
2019-05-12T02:51:15.268Z,99.90
2019-05-12T02:53:41.964Z,99.90
2019-05-12T02:56:10.836Z,99.90
2019-05-12T02:58:38.869Z,99.90
2019-05-12T03:01:06.872Z,99.90
2019-05-12T03:03:36.275Z,99.90
2019-05-12T03:06:05.493Z,99.90
2019-05-12T03:08:34.836Z,99.90
2019-05-12T03:11:05.960Z,99.90
2019-05-12T03:13:34.555Z,99.90
2019-05-12T03:16:04.989Z,99.90
2019-05-12T03:18:34.508Z,99.90
2019-05-12T03:21:01.254Z,99.90
2019-05-12T03:23:29.201Z,99.90
2019-05-12T03:25:57.161Z,99.90
2019-05-12T03:28:25.701Z,99.90
2019-05-12T03:30:57.477Z,99.90
2019-05-12T03:33:27.932Z,99.90
2019-05-12T03:36:00.248Z,99.90
2019-05-12T03:38:24.865Z,99.90
2019-05-12T03:40:54.941Z,99.90
2019-05-12T03:43:24.180Z,99.90
2019-05-12T03:45:51.188Z,99.90
2019-05-12T03:48:19.030Z,99.90
2019-05-12T03:50:46.998Z,99.90
2019-05-12T03:53:15.829Z,99.90
2019-05-12T03:55:46.800Z,99.90
2019-05-12T03:58:15.192Z,99.90
2019-05-12T04:00:44.709Z,99.90
2019-05-12T04:03:15.313Z,99.90
2019-05-12T04:05:45.233Z,99.90
2019-05-12T04:08:15.400Z,99.90
2019-05-12T04:10:41.663Z,99.90
2019-05-12T04:13:09.628Z,99.90
2019-05-12T04:15:37.573Z,99.90
2019-05-12T04:18:06.507Z,99.90
2019-05-12T04:20:35.750Z,99.90
2019-05-12T04:23:05.830Z,99.90
2019-05-12T04:25:47.693Z,99.90
2019-05-12T04:28:04.843Z,99.90
2019-05-12T04:30:35.401Z,99.90
2019-05-12T04:33:04.803Z,99.90
2019-05-12T04:35:34.855Z,99.90
2019-05-12T04:38:04.106Z,99.90
2019-05-12T04:40:30.970Z,99.90
2019-05-12T04:42:58.870Z,99.90
2019-05-12T04:45:26.702Z,99.90
2019-05-12T04:47:55.252Z,99.90
2019-05-12T04:50:24.557Z,99.90
2019-05-12T04:52:54.821Z,99.90
2019-05-12T04:55:25.330Z,99.90
2019-05-12T04:57:54.461Z,99.90
2019-05-12T05:00:21.252Z,99.90
2019-05-12T05:02:49.202Z,99.90
2019-05-12T05:05:17.094Z,99.90
2019-05-12T05:07:45.057Z,99.90
2019-05-12T05:10:14.545Z,99.90
2019-05-12T05:12:45.032Z,99.90
2019-05-12T05:15:14.650Z,99.90
2019-05-12T05:17:44.097Z,99.90
2019-05-12T05:20:13.388Z,99.90
2019-05-12T05:22:41.057Z,99.90
2019-05-12T05:25:08.981Z,99.90
2019-05-12T05:27:36.905Z,99.90
2019-05-12T05:30:06.307Z,99.90
2019-05-12T05:32:34.224Z,99.90
2019-05-12T05:35:03.905Z,99.90
2019-05-12T05:37:39.610Z,99.90
2019-05-12T05:40:03.730Z,99.90
2019-05-12T05:42:32.811Z,99.90
2019-05-12T05:45:00.401Z,99.90
2019-05-12T05:47:28.800Z,99.90
2019-05-12T05:49:56.698Z,99.90
2019-05-12T05:52:32.850Z,99.90
2019-05-12T05:54:54.160Z,99.90
2019-05-12T05:57:25.706Z,99.90
2019-05-12T05:59:53.657Z,99.90
2019-05-12T06:02:23.187Z,99.90
2019-05-12T06:04:54.102Z,99.90
2019-05-12T06:07:23.828Z,99.90
2019-05-12T06:09:49.939Z,99.90
2019-05-12T06:12:17.805Z,99.90
2019-05-12T06:14:48.827Z,99.90
2019-05-12T06:17:15.272Z,99.90
2019-05-12T06:19:43.785Z,99.90
2019-05-12T06:22:15.127Z,99.90
2019-05-12T06:24:43.993Z,99.90
2019-05-12T06:27:16.235Z,99.90
2019-05-12T06:29:40.608Z,99.90
2019-05-12T06:32:10.754Z,99.90
2019-05-12T06:34:38.129Z,99.90
2019-05-12T06:37:12.058Z,99.90
2019-05-12T06:39:35.869Z,99.90
2019-05-12T06:42:12.737Z,99.90
2019-05-12T06:44:39.552Z,99.90
2019-05-12T06:47:08.426Z,99.90
2019-05-12T06:49:36.524Z,99.90
2019-05-12T06:52:07.073Z,99.90
2019-05-12T06:54:34.045Z,99.90
2019-05-12T06:57:18.615Z,99.90
2019-05-12T06:59:33.744Z,99.90
2019-05-12T07:02:03.234Z,99.90
2019-05-12T07:04:34.656Z,99.90
2019-05-12T07:07:03.580Z,99.90
2019-05-12T07:09:34.704Z,99.90
2019-05-12T07:12:06.218Z,99.90
2019-05-12T07:14:30.710Z,99.90
2019-05-12T07:17:02.853Z,99.90
2019-05-12T07:19:29.945Z,99.90
2019-05-12T07:22:00.103Z,99.90
2019-05-12T07:24:27.447Z,99.90
2019-05-12T07:27:04.134Z,99.90
2019-05-12T07:29:24.885Z,99.90
2019-05-12T07:31:53.687Z,99.90
2019-05-12T07:34:23.823Z,99.90
2019-05-12T07:36:53.784Z,99.90
2019-05-12T07:39:24.069Z,99.90
2019-05-12T07:41:52.244Z,99.90
2019-05-12T07:44:22.976Z,99.90
2019-05-12T07:46:50.780Z,99.90
2019-05-12T07:49:22.719Z,99.90
2019-05-12T07:51:50.076Z,99.90
2019-05-12T07:54:17.741Z,99.90
2019-05-12T07:56:45.719Z,99.90
2019-05-12T07:59:13.672Z,99.90
2019-05-12T08:01:45.257Z,99.90
2019-05-12T08:04:13.306Z,99.90
2019-05-12T08:06:42.452Z,99.90
2019-05-12T08:09:10.604Z,99.90
2019-05-12T08:11:38.948Z,99.90
2019-05-12T08:14:07.051Z,99.90
2019-05-12T08:16:36.884Z,99.90
2019-05-12T08:19:04.669Z,99.90
2019-05-12T08:21:34.781Z,99.90
2019-05-12T08:24:03.776Z,99.90
2019-05-12T08:26:33.495Z,99.90
2019-05-12T08:29:03.984Z,99.90
2019-05-12T08:31:33.249Z,99.90
2019-05-12T08:34:00.570Z,99.90
2019-05-12T08:36:28.899Z,99.90
2019-05-12T08:38:56.878Z,99.90
2019-05-12T08:41:24.801Z,99.90
2019-05-12T08:43:57.515Z,99.90
2019-05-12T08:46:24.383Z,99.90
2019-05-12T08:49:00.090Z,99.90
2019-05-12T08:51:21.602Z,99.90
2019-05-12T08:53:56.143Z,99.90
2019-05-12T08:56:20.530Z,99.90
2019-05-12T08:58:51.357Z,99.90
2019-05-12T09:01:20.218Z,99.90
2019-05-12T09:03:47.650Z,99.90
2019-05-12T09:06:19.518Z,99.90
2019-05-12T09:08:49.191Z,99.90
2019-05-12T09:11:14.862Z,99.90
2019-05-12T09:13:43.455Z,99.90
2019-05-12T09:16:13.646Z,99.90
2019-05-12T09:18:43.308Z,99.90
2019-05-12T09:21:10.908Z,99.90
2019-05-12T09:23:41.110Z,99.90
2019-05-12T09:26:08.514Z,99.90
2019-05-12T09:28:46.787Z,99.90
2019-05-12T09:31:05.915Z,99.90
2019-05-12T09:33:34.672Z,99.90
2019-05-12T09:36:04.338Z,99.90
2019-05-12T09:38:33.239Z,99.90
2019-05-12T09:41:02.467Z,99.90
2019-05-12T09:43:30.736Z,99.90
2019-05-12T09:45:58.666Z,99.90
2019-05-12T09:48:26.533Z,99.90
2019-05-12T09:51:00.322Z,99.90
2019-05-12T09:53:24.110Z,99.90
2019-05-12T09:55:53.956Z,99.90
2019-05-12T09:58:25.103Z,99.90
2019-05-12T10:00:51.278Z,99.90
2019-05-12T10:03:19.118Z,99.90
2019-05-12T10:05:46.992Z,99.90
2019-05-12T10:08:14.855Z,99.90
2019-05-12T10:10:46.792Z,99.90
2019-05-12T10:13:13.916Z,99.90
2019-05-12T10:15:41.813Z,99.90
2019-05-12T10:18:11.401Z,99.90
2019-05-12T10:20:39.901Z,99.90
2019-05-12T10:23:10.199Z,99.90
2019-05-12T10:25:37.475Z,99.90
2019-05-12T10:28:11.302Z,99.90
2019-05-12T10:30:35.165Z,99.90
2019-05-12T10:33:03.819Z,99.90
2019-05-12T10:35:34.692Z,99.90
2019-05-12T10:38:08.585Z,99.90
2019-05-12T10:40:31.085Z,99.90
2019-05-12T10:42:59.323Z,99.90
2019-05-12T10:45:28.800Z,99.90
2019-05-12T10:47:56.777Z,99.90
2019-05-12T10:50:24.949Z,99.90
2019-05-12T10:52:53.625Z,99.90
2019-05-12T10:55:23.860Z,99.90
2019-05-12T10:57:52.909Z,99.90
2019-05-12T11:00:25.153Z,99.90
2019-05-12T11:02:50.526Z,99.90
2019-05-12T11:05:26.066Z,99.90
2019-05-12T11:07:53.969Z,99.90
2019-05-12T11:10:23.315Z,99.90
2019-05-12T11:12:51.291Z,99.90
2019-05-12T11:15:19.252Z,99.90
2019-05-12T11:17:54.523Z,99.90
2019-05-12T11:20:25.080Z,99.90
2019-05-12T11:22:54.336Z,99.90
2019-05-12T11:25:24.114Z,99.90
2019-05-12T11:27:54.722Z,99.90
2019-05-12T11:30:23.724Z,99.90
2019-05-12T11:32:53.698Z,99.90
2019-05-12T11:35:20.738Z,99.90
2019-05-12T11:37:48.681Z,99.90
2019-05-12T11:40:16.636Z,99.90
2019-05-12T11:42:46.821Z,99.90
2019-05-12T11:45:14.148Z,99.90
2019-05-12T11:47:42.101Z,99.90
2019-05-12T11:50:10.222Z,99.90
2019-05-12T11:52:38.221Z,99.90
2019-05-12T11:55:06.140Z,99.90
2019-05-12T11:57:34.199Z,99.90
2019-05-12T12:00:05.163Z,99.90
2019-05-12T12:02:34.068Z,99.90
2019-05-12T12:05:01.367Z,99.90
2019-05-12T12:07:29.331Z,99.90
2019-05-12T12:09:59.471Z,99.90
2019-05-12T12:12:26.867Z,99.90
2019-05-12T12:14:54.783Z,99.90
2019-05-12T12:17:30.829Z,99.90
2019-05-12T12:19:54.435Z,99.90
2019-05-12T12:22:28.140Z,99.90
2019-05-12T12:24:51.365Z,99.90
2019-05-12T12:27:19.289Z,99.90
2019-05-12T12:29:47.227Z,99.90
2019-05-12T12:32:18.413Z,99.90
2019-05-12T12:34:44.666Z,99.90
2019-05-12T12:37:13.693Z,99.90
2019-05-12T12:39:43.486Z,99.90
2019-05-12T12:42:13.844Z,99.90
2019-05-12T12:44:40.854Z,99.90
2019-05-12T12:47:08.800Z,99.90
2019-05-12T12:49:39.901Z,99.90
2019-05-12T12:52:06.320Z,99.90
2019-05-12T12:54:34.199Z,99.90
2019-05-12T12:57:06.661Z,99.90
2019-05-12T12:59:33.362Z,99.90
2019-05-12T13:02:05.865Z,99.90
2019-05-12T13:04:30.975Z,99.90
2019-05-12T13:06:58.891Z,99.90
2019-05-12T13:09:26.812Z,99.90
2019-05-12T13:11:54.751Z,99.90
2019-05-12T13:14:23.444Z,99.90
2019-05-12T13:16:54.663Z,99.90
2019-05-12T13:19:23.740Z,99.90
2019-05-12T13:21:53.187Z,99.90
2019-05-12T13:24:21.701Z,99.90
2019-05-12T13:26:49.657Z,99.90
2019-05-12T13:29:17.561Z,99.90
2019-05-12T13:31:46.839Z,99.90
2019-05-12T13:34:14.995Z,99.90
2019-05-12T13:36:44.048Z,99.90
2019-05-12T13:39:16.429Z,99.90
2019-05-12T13:41:43.627Z,99.90
2019-05-12T13:44:13.497Z,99.90
2019-05-12T13:46:40.911Z,99.90
2019-05-12T13:49:08.781Z,99.90
2019-05-12T13:51:36.670Z,99.90
2019-05-12T13:54:04.598Z,99.90
2019-05-12T13:56:35.605Z,99.90
2019-05-12T13:59:04.079Z,99.90
2019-05-12T14:01:39.875Z,99.90
2019-05-12T14:04:03.903Z,99.90
2019-05-12T14:06:32.970Z,99.90
2019-05-12T14:09:00.375Z,99.90
2019-05-12T14:11:28.331Z,99.90
2019-05-12T14:13:57.503Z,99.90
2019-05-12T14:16:25.433Z,99.90
2019-05-12T14:18:56.997Z,99.90
2019-05-12T14:21:24.467Z,99.90
2019-05-12T14:23:52.539Z,99.90
2019-05-12T14:26:20.451Z,99.90
2019-05-12T14:28:49.661Z,99.90
2019-05-12T14:31:29.230Z,99.90
2019-05-12T14:33:48.189Z,99.90
2019-05-12T14:36:22.174Z,99.90
2019-05-12T14:38:45.665Z,99.90
2019-05-12T14:41:14.601Z,99.90
2019-05-12T14:43:45.569Z,99.90
2019-05-12T14:46:13.480Z,99.90
2019-05-12T14:48:48.525Z,99.90
2019-05-12T14:51:11.116Z,99.90
2019-05-12T14:53:39.838Z,99.90
2019-05-12T14:56:08.023Z,99.90
2019-05-12T14:58:35.874Z,99.90
2019-05-12T15:01:04.045Z,99.90
2019-05-12T15:03:34.249Z,99.90
2019-05-12T15:06:03.768Z,99.90
2019-05-12T15:08:37.167Z,99.90
2019-05-12T15:11:01.316Z,99.90
2019-05-12T15:13:29.243Z,99.90
2019-05-12T15:16:00.059Z,99.90
2019-05-12T15:18:26.760Z,99.90
2019-05-12T15:20:54.626Z,99.90
2019-05-12T15:23:25.882Z,99.90
2019-05-12T15:25:53.821Z,99.90
2019-05-12T15:28:23.578Z,99.90
2019-05-12T15:30:51.218Z,99.90
2019-05-12T15:33:19.185Z,98.70
2019-05-12T15:35:47.146Z,97.70
2019-05-12T15:38:16.830Z,97.80
2019-05-12T15:40:44.941Z,96.20
2019-05-12T15:43:13.820Z,95.80
2019-05-12T15:45:43.686Z,95.90
2019-05-12T15:48:11.446Z,95.90
2019-05-12T15:50:42.417Z,94.70
2019-05-12T15:53:15.953Z,95.30
2019-05-12T15:55:38.452Z,94.70
2019-05-12T15:58:06.388Z,94.20
2019-05-12T16:00:34.469Z,93.20
2019-05-12T16:03:02.404Z,93.50
2019-05-12T16:05:31.182Z,94.00
2019-05-12T16:07:59.182Z,93.10
2019-05-12T16:10:27.151Z,91.70
2019-05-12T16:12:55.091Z,92.60
2019-05-12T16:15:23.067Z,93.10
2019-05-12T16:17:53.878Z,93.40
2019-05-12T16:20:22.156Z,94.20
2019-05-12T16:22:53.119Z,92.10
2019-05-12T16:25:27.349Z,92.40
2019-05-12T16:27:51.653Z,92.90
2019-05-12T16:30:25.950Z,93.60
2019-05-12T16:32:51.230Z,93.80
2019-05-12T16:35:25.550Z,93.90
2019-05-12T16:37:50.355Z,93.20
2019-05-12T16:40:19.759Z,94.00
2019-05-12T16:42:52.678Z,94.10
2019-05-12T16:45:19.870Z,93.10
2019-05-12T16:47:47.682Z,93.50
2019-05-12T16:50:24.471Z,92.30
2019-05-12T16:52:46.978Z,91.90
2019-05-12T16:55:15.757Z,91.10
2019-05-12T16:57:51.423Z,91.00
2019-05-12T17:00:15.562Z,91.60
2019-05-12T17:02:51.959Z,90.10
2019-05-12T17:05:19.705Z,90.20
2019-05-12T17:07:45.228Z,90.00
2019-05-12T17:10:16.445Z,89.20
2019-05-12T17:12:47.953Z,88.90
2019-05-12T17:15:15.316Z,86.00
2019-05-12T17:17:50.618Z,85.20
2019-05-12T17:20:15.020Z,81.90
2019-05-12T17:22:54.031Z,81.00
2019-05-12T17:25:15.545Z,83.30
2019-05-12T17:27:45.059Z,82.30
2019-05-12T17:30:14.525Z,83.10
2019-05-12T17:32:57.572Z,81.30
2019-05-12T17:35:14.591Z,83.80
2019-05-12T17:37:43.769Z,83.80
2019-05-12T17:40:15.465Z,82.90
2019-05-12T17:42:44.118Z,85.10
2019-05-12T17:45:20.285Z,82.20
2019-05-12T17:47:44.741Z,81.60
2019-05-12T17:50:14.665Z,84.80
2019-05-12T17:52:45.114Z,86.80
2019-05-12T17:55:14.661Z,90.50
2019-05-12T17:57:44.208Z,90.70
2019-05-12T18:00:15.016Z,92.40
2019-05-12T18:02:44.177Z,92.90
2019-05-12T18:05:15.460Z,93.80
2019-05-12T18:07:44.500Z,93.40
2019-05-12T18:10:13.786Z,94.60
2019-05-12T18:12:45.233Z,95.00
2019-05-12T18:15:15.130Z,95.30
2019-05-12T18:17:49.419Z,95.50
2019-05-12T18:20:14.916Z,96.10
2019-05-12T18:22:45.464Z,96.10
2019-05-12T18:25:15.375Z,96.20
2019-05-12T18:27:50.276Z,96.90
2019-05-12T18:30:18.582Z,96.80
2019-05-12T18:32:45.252Z,97.40
2019-05-12T18:35:14.040Z,97.50
2019-05-12T18:37:42.773Z,97.80
2019-05-12T18:40:14.451Z,98.20
2019-05-12T18:42:42.434Z,98.90
2019-05-12T18:45:14.887Z,99.30
2019-05-12T18:47:44.060Z,99.90
2019-05-12T18:50:14.210Z,99.70
2019-05-12T18:52:46.031Z,99.90
2019-05-12T18:55:13.471Z,99.90
2019-05-12T18:57:46.265Z,99.70
2019-05-12T19:00:18.880Z,99.90
2019-05-12T19:02:50.803Z,99.90
2019-05-12T19:05:22.007Z,99.90
2019-05-12T19:07:48.840Z,99.90
2019-05-12T19:10:17.706Z,99.90
2019-05-12T19:12:46.533Z,99.90
2019-05-12T19:15:20.106Z,99.90
2019-05-12T19:17:46.112Z,99.90
2019-05-12T19:20:15.881Z,99.90
2019-05-12T19:22:54.024Z,99.90
2019-05-12T19:25:18.709Z,99.90
2019-05-12T19:27:49.641Z,99.90
2019-05-12T19:30:19.558Z,99.90
2019-05-12T19:32:47.032Z,99.90
2019-05-12T19:35:20.223Z,99.90
2019-05-12T19:37:46.672Z,99.90
2019-05-12T19:40:17.572Z,99.90
2019-05-12T19:42:46.110Z,99.90
2019-05-12T19:45:21.377Z,99.90
2019-05-12T19:47:48.761Z,99.90
2019-05-12T19:50:18.610Z,99.90
2019-05-12T19:52:46.511Z,99.90
2019-05-12T19:55:15.452Z,99.90
2019-05-12T19:57:44.525Z,99.90
2019-05-12T20:00:16.275Z,99.90
2019-05-12T20:02:45.128Z,99.90
2019-05-12T20:05:17.480Z,99.90
2019-05-12T20:07:45.270Z,99.90
2019-05-12T20:10:16.600Z,99.90
2019-05-12T20:12:48.694Z,99.90
2019-05-12T20:15:15.876Z,99.90
2019-05-12T20:17:45.888Z,99.90
2019-05-12T20:20:17.898Z,99.90
2019-05-12T20:22:45.754Z,99.90
2019-05-12T20:25:14.854Z,99.90
2019-05-12T20:27:44.559Z,99.90
2019-05-12T20:30:19.583Z,99.90
2019-05-12T20:32:44.837Z,99.90
2019-05-12T20:35:14.756Z,99.90
2019-05-12T20:37:52.710Z,99.90
2019-05-12T20:40:14.162Z,99.90
2019-05-12T20:43:05.310Z,99.90
2019-05-12T20:45:14.439Z,99.90
2019-05-12T20:47:44.974Z,99.90
2019-05-12T20:50:14.813Z,99.90
2019-05-12T20:52:46.326Z,99.90
2019-05-12T20:55:14.653Z,99.90
2019-05-12T20:57:51.961Z,99.90
2019-05-12T21:00:14.479Z,99.90
2019-05-12T21:02:44.246Z,99.90
2019-05-12T21:05:19.724Z,99.90
2019-05-12T21:07:44.544Z,99.90
2019-05-12T21:10:14.781Z,99.90
2019-05-12T21:12:48.105Z,99.90
2019-05-12T21:15:20.119Z,99.90
2019-05-12T21:17:52.093Z,99.90
2019-05-12T21:20:16.859Z,99.90
2019-05-12T21:22:45.735Z,99.90
2019-05-12T21:25:14.539Z,99.90
2019-05-12T21:27:46.899Z,99.90
2019-05-12T21:30:15.291Z,99.90
2019-05-12T21:32:47.074Z,99.90
2019-05-12T21:35:21.871Z,99.90
2019-05-12T21:37:46.317Z,99.90
2019-05-12T21:40:15.395Z,99.90
2019-05-12T21:42:44.883Z,99.90
2019-05-12T21:45:14.617Z,99.90
2019-05-12T21:47:44.461Z,99.90
2019-05-12T21:50:14.211Z,99.90
2019-05-12T21:52:44.540Z,99.90
2019-05-12T21:55:21.618Z,99.90
2019-05-12T21:57:44.150Z,99.90
2019-05-12T22:00:34.650Z,99.90
2019-05-12T22:03:10.341Z,99.90
2019-05-12T22:05:50.049Z,99.90
2019-05-12T22:08:06.436Z,99.90
2019-05-12T22:10:35.786Z,99.90
2019-05-12T22:13:08.980Z,99.90
2019-05-12T22:15:35.055Z,99.90
2019-05-12T22:18:04.933Z,99.90
2019-05-12T22:20:35.133Z,99.90
2019-05-12T22:23:09.720Z,99.90
2019-05-12T22:25:35.292Z,99.90
2019-05-12T22:28:09.825Z,99.90
2019-05-12T22:30:35.190Z,99.90
2019-05-12T22:33:09.157Z,99.90
2019-05-12T22:35:37.241Z,99.90
2019-05-12T22:38:15.413Z,99.90
2019-05-12T22:40:36.342Z,99.90
2019-05-12T22:43:07.122Z,99.90
2019-05-12T22:45:44.005Z,99.90
2019-05-12T22:48:05.762Z,99.90
2019-05-12T22:50:35.352Z,99.90
2019-05-12T22:53:04.785Z,99.90
2019-05-12T22:55:36.112Z,99.90
2019-05-12T22:58:04.452Z,99.90
2019-05-12T23:00:34.224Z,99.90
2019-05-12T23:03:09.279Z,99.90
2019-05-12T23:05:33.788Z,99.90
2019-05-12T23:08:05.909Z,99.90
2019-05-12T23:10:32.882Z,99.90
2019-05-12T23:13:04.312Z,99.90
2019-05-12T23:15:33.489Z,99.90
2019-05-12T23:18:04.323Z,99.90
2019-05-12T23:20:33.352Z,99.90
2019-05-12T23:23:03.868Z,99.90
2019-05-12T23:25:33.790Z,99.90
2019-05-12T23:28:06.726Z,99.90
2019-05-12T23:30:32.969Z,99.90
2019-05-12T23:33:03.792Z,99.90
2019-05-12T23:35:37.761Z,99.90
2019-05-12T23:38:04.417Z,99.90
2019-05-12T23:40:34.520Z,99.90
2019-05-12T23:43:04.014Z,99.90
2019-05-12T23:45:34.026Z,99.90
2019-05-12T23:48:03.778Z,99.90
2019-05-12T23:50:32.922Z,99.90
2019-05-12T23:53:03.756Z,99.90
2019-05-12T23:55:34.940Z,99.90
2019-05-12T23:58:04.308Z,99.90
